• Join FlightAware (Why Join?)
  • Login
  • US Flag 
03:09PM EDT


 

Airport Tracker/Info


-or-


 

Live Flight TrackerFlight Track Log ✈ AIE807 ✈ 11-Jun-2013 ✈ CYUY - CYUL

Flight Track Log - Related Links

Times and Time Zones

All times are in EDT time to prevent confusion due to time zone crossing. See the AIE807 flight status page for this flight to view local times or setup timezone preferences in your user account.

Time Position Orientation Groundspeed Altitude Reporting Facility
EDT Latitude Longitude Course Direction KTS MPH feet Rate Location/Type
07:49PM 47.9706 -78.3584 126° Southeast  Level Estimated
07:50PM 47.9312 -78.2793 127° Southeast  Level Estimated
07:50PM 47.9667 -78.6333 127° Southeast 190 219 10,600  Level Montreal Center
07:51PM 47.8917 -78.2003 127° Southeast  Level Estimated
07:51PM 47.9167 -78.5500 132° Southeast 190 219 11,800  Level Montreal Center
07:52PM 47.8521 -78.1214 127° Southeast  Level Estimated
07:52PM 47.8833 -78.5000 135° Southeast 200 230 12,900  Level Montreal Center
07:53PM 47.8125 -78.0426 127° Southeast  Level Estimated
07:53PM 47.8333 -78.4167 132° Southeast 200 230 13,900  Level Montreal Center
07:54PM 47.7729 -77.9640 127° Southeast  Level Estimated
07:54PM 47.8000 -78.3667 135° Southeast 220 253 14,800  Level Montreal Center
07:55PM 47.7332 -77.8855 127° Southeast  Level Estimated
07:55PM 47.7500 -78.2833 132° Southeast 220 253 15,700  Level Montreal Center
07:56PM 47.6934 -77.8071 127° Southeast  Level Estimated
07:56PM 47.7167 -78.2333 135° Southeast 220 253 16,400  Level Montreal Center
07:57PM 47.6667 -78.1667 138° Southeast 230 265 17,300 840 Climbing Montreal Center
07:58PM 47.6167 -78.0833 132° Southeast 230 265 18,100 720 Climbing Montreal Center
07:59PM 47.5833 -78.0333 135° Southeast 230 265 18,800 420 Climbing Montreal Center
08:00PM 47.5167 -77.9500 140° Southeast 240 276 19,000 420 Climbing Montreal Center
08:01PM 47.4667 -77.8833 138° Southeast 260 299 19,700 780 Climbing Montreal Center
08:02PM 47.4333 -77.8000 121° Southeast 240 276 20,600 660 Climbing Montreal Center
08:03PM 47.3833 -77.7333 138° Southeast 240 276 21,100 600 Climbing Montreal Center
08:04PM 47.3333 -77.6500 132° Southeast 230 265 21,900 600 Climbing Montreal Center
08:05PM 47.2833 -77.6000 146° Southeast 220 253 22,400 540 Climbing Montreal Center
08:06PM 47.2167 -77.5667 161° South 230 265 23,000 660 Climbing Montreal Center
08:07PM 47.1667 -77.5667 180° South 220 253 23,800 660 Climbing Montreal Center
08:08PM 47.1000 -77.5167 153° Southeast 220 253 24,400 540 Climbing Montreal Center
08:09PM 47.0500 -77.5000 167° South 220 253 24,900 300 Climbing Montreal Center
08:10PM 47.0167 -77.4500 134° Southeast 220 253 25,000  Climbing Montreal Center
08:11PM 46.9833 -77.3500 116° Southeast 240 276 25,000  Level Montreal Center
08:12PM 46.9500 -77.2667 120° Southeast 250 288 25,000  Level Montreal Center
08:13PM 46.9000 -77.1667 126° Southeast 260 299 25,000  Level Montreal Center
08:14PM 46.8667 -77.1000 126° Southeast 260 299 25,000  Level Montreal Center
08:15PM 46.8167 -77.0000 126° Southeast 260 299 25,000  Level Montreal Center
08:16PM 46.7833 -76.9000 116° Southeast 260 299 25,000  Level Montreal Center
08:17PM 46.7333 -76.8167 131° Southeast 260 299 25,000  Level Montreal Center
08:18PM 46.6833 -76.7333 131° Southeast 270 311 25,000  Level Montreal Center
08:19PM 46.6500 -76.6333 116° Southeast 270 311 25,000  Level Montreal Center
08:20PM 46.6000 -76.5500 131° Southeast 270 311 25,000  Level Montreal Center
08:21PM 46.5667 -76.4500 116° Southeast 270 311 25,000  Level Montreal Center
08:22PM 46.5333 -76.3833 126° Southeast 270 311 25,000  Level Montreal Center
08:23PM 46.4833 -76.2833 126° Southeast 270 311 25,000  Level Montreal Center
08:24PM 46.4333 -76.1833 126° Southeast 260 299 25,000  Level Montreal Center
08:25PM 46.4000 -76.1167 126° Southeast 260 299 25,000  Level Montreal Center
08:26PM 46.3667 -76.0167 116° Southeast 260 299 25,000  Level Montreal Center
08:27PM 46.3167 -75.9167 126° Southeast 260 299 25,000  Level Montreal Center
08:28PM 46.2833 -75.8500 126° Southeast 260 299 25,000  Level Montreal Center
08:29PM 46.2333 -75.7500 126° Southeast 260 299 25,000  Level Montreal Center
08:30PM 46.2000 -75.6833 126° Southeast 260 299 25,000  Level Montreal Center
08:31PM 46.1500 -75.6000 131° Southeast 250 288 25,000  Level Montreal Center
08:32PM 46.1333 -75.4833 102° East 250 288 25,000  Level Montreal Center
08:33PM 46.1333 -75.3833 90° East 250 288 25,000  Level Montreal Center
08:34PM 46.1167 -75.2833 103° East 250 288 25,000 -480 Level Montreal Center
08:35PM 46.1167 -75.2000 90° East 260 299 24,100 -1,200 Descending Montreal Center
08:36PM 46.1000 -75.0667 100° East 290 334 22,700 -1,500 Descending Montreal Center
08:37PM 46.0667 -74.9500 112° Southeast 310 357 21,200 -1,500 Descending Montreal Center
08:38PM 46.0667 -74.8333 90° East 300 345 19,700 -1,500 Descending Montreal Center
08:39PM 46.0500 -74.7167 102° East 300 345 18,200 -1,260 Descending Montreal Center
08:40PM 46.0500 -74.5833 90° East 300 345 17,200 -1,200 Descending Montreal Center
08:41PM 46.0333 -74.4667 102° East 280 322 15,800 -1,680 Descending Montreal Center
08:42PM 45.9667 -74.4000 145° Southeast 300 345 13,900 -1,620 Descending Montreal Center
08:43PM 45.9000 -74.3333 145° Southeast 280 322 12,600 -1,260 Descending Montreal Center
08:44PM 45.8500 -74.2667 137° Southeast 250 288 11,400 -840 Descending Montreal Center
08:45PM 45.8000 -74.2167 145° Southeast 230 265 11,000 -180 Descending Montreal Center
08:46PM 45.7500 -74.1667 145° Southeast 230 265 11,100 -540 Climbing Montreal Center
08:47PM 45.7000 -74.0667 126° Southeast 260 299 10,000 -1,200 Descending Montreal Center
08:48PM 45.6333 -74.0000 145° Southeast 260 299 8,800 -1,200 Descending Montreal Center
08:49PM 45.5667 -73.9833 170° South 250 288 7,700 -1,500 Descending Montreal Center
08:50PM 45.5000 -73.9667 170° South 250 288 5,900 -1,440 Descending Montreal Center
08:51PM 45.4500 -73.9667 180° South 230 265 4,900 -1,020 Descending Montreal Center
08:52PM 45.3833 -73.9667 180° South 220 253 3,900 -1,020 Descending Montreal Center
08:53PM 45.3333 -73.9167 145° Southeast 200 230 2,900 -900 Descending Montreal Center
08:54PM 45.3333 -73.8667 90° East 170 196 2,100 -420 Descending Montreal Center
08:55PM 45.3667 -73.8167 46° Northeast 140 161 2,100 -300 Level Montreal Center
08:56PM 45.4000 -73.8000 19° North 100 115 1,500 -600 Descending Montreal Center
08:57PM 45.4167 -73.7667 55° Northeast 100 115 900 -600 Descending Montreal Center
08:58PM 45.4333 -73.7500 35° Northeast 110 127 400 -540 Descending Montreal Center